sensor_id;sensor_type;location;lat;lon;timestamp;P1;durP1;ratioP1;P2;durP2;ratioP2
50267;SDS011;36153;50.960;6.220;2023-04-24T00:02:30;2.40;;;0.93;;
50267;SDS011;36153;50.960;6.220;2023-04-24T00:05:31;3.80;;;1.10;;
50267;SDS011;36153;50.960;6.220;2023-04-24T00:08:32;2.42;;;1.15;;
50267;SDS011;36153;50.960;6.220;2023-04-24T00:11:33;2.75;;;1.35;;
50267;SDS011;36153;50.960;6.220;2023-04-24T00:14:33;3.45;;;1.80;;
50267;SDS011;36153;50.960;6.220;2023-04-24T00:17:35;2.92;;;2.15;;
50267;SDS011;36153;50.960;6.220;2023-04-24T00:20:35;3.33;;;1.90;;
50267;SDS011;36153;50.960;6.220;2023-04-24T00:23:35;3.22;;;2.10;;
50267;SDS011;36153;50.960;6.220;2023-04-24T00:26:36;3.63;;;1.80;;
50267;SDS011;36153;50.960;6.220;2023-04-24T00:29:36;4.38;;;2.22;;
50267;SDS011;36153;50.960;6.220;2023-04-24T00:32:36;5.22;;;2.70;;
50267;SDS011;36153;50.960;6.220;2023-04-24T00:35:37;4.70;;;2.40;;
50267;SDS011;36153;50.960;6.220;2023-04-24T00:38:38;5.13;;;2.63;;
50267;SDS011;36153;50.960;6.220;2023-04-24T00:41:38;4.55;;;2.72;;
50267;SDS011;36153;50.960;6.220;2023-04-24T00:44:38;5.30;;;2.83;;
50267;SDS011;36153;50.960;6.220;2023-04-24T00:47:39;7.50;;;3.30;;
50267;SDS011;36153;50.960;6.220;2023-04-24T00:50:41;6.15;;;3.38;;
50267;SDS011;36153;50.960;6.220;2023-04-24T00:53:42;8.57;;;4.13;;
50267;SDS011;36153;50.960;6.220;2023-04-24T00:56:42;6.80;;;3.10;;
50267;SDS011;36153;50.960;6.220;2023-04-24T00:59:44;6.43;;;3.42;;
50267;SDS011;36153;50.960;6.220;2023-04-24T01:02:45;7.85;;;3.95;;
50267;SDS011;36153;50.960;6.220;2023-04-24T01:05:47;6.43;;;4.38;;
50267;SDS011;36153;50.960;6.220;2023-04-24T01:08:48;6.28;;;3.92;;
50267;SDS011;36153;50.960;6.220;2023-04-24T01:11:49;5.95;;;4.05;;
50267;SDS011;36153;50.960;6.220;2023-04-24T01:14:50;8.48;;;4.63;;
50267;SDS011;36153;50.960;6.220;2023-04-24T01:17:51;8.63;;;4.22;;
50267;SDS011;36153;50.960;6.220;2023-04-24T01:20:53;9.48;;;4.40;;
50267;SDS011;36153;50.960;6.220;2023-04-24T01:23:56;8.00;;;4.50;;
50267;SDS011;36153;50.960;6.220;2023-04-24T01:26:57;8.93;;;4.68;;
50267;SDS011;36153;50.960;6.220;2023-04-24T01:29:57;8.73;;;4.88;;
50267;SDS011;36153;50.960;6.220;2023-04-24T01:32:57;9.63;;;4.55;;
50267;SDS011;36153;50.960;6.220;2023-04-24T01:35:58;7.22;;;3.88;;
50267;SDS011;36153;50.960;6.220;2023-04-24T01:38:59;10.48;;;4.85;;
50267;SDS011;36153;50.960;6.220;2023-04-24T01:42:00;9.55;;;4.97;;
50267;SDS011;36153;50.960;6.220;2023-04-24T01:45:02;8.43;;;4.47;;
50267;SDS011;36153;50.960;6.220;2023-04-24T01:48:05;10.98;;;4.88;;
50267;SDS011;36153;50.960;6.220;2023-04-24T01:51:05;12.73;;;5.43;;
50267;SDS011;36153;50.960;6.220;2023-04-24T01:54:06;10.50;;;5.00;;
50267;SDS011;36153;50.960;6.220;2023-04-24T01:57:07;8.60;;;4.50;;
50267;SDS011;36153;50.960;6.220;2023-04-24T02:00:08;9.23;;;4.82;;
50267;SDS011;36153;50.960;6.220;2023-04-24T02:03:12;8.65;;;4.57;;
50267;SDS011;36153;50.960;6.220;2023-04-24T02:06:12;9.35;;;5.22;;
50267;SDS011;36153;50.960;6.220;2023-04-24T02:09:12;11.70;;;4.78;;
50267;SDS011;36153;50.960;6.220;2023-04-24T02:12:13;8.85;;;4.40;;
50267;SDS011;36153;50.960;6.220;2023-04-24T02:15:14;8.25;;;4.85;;
50267;SDS011;36153;50.960;6.220;2023-04-24T02:18:16;8.63;;;4.82;;
50267;SDS011;36153;50.960;6.220;2023-04-24T02:21:16;11.80;;;4.90;;
50267;SDS011;36153;50.960;6.220;2023-04-24T02:24:17;9.10;;;5.10;;
50267;SDS011;36153;50.960;6.220;2023-04-24T02:27:17;7.28;;;4.43;;
50267;SDS011;36153;50.960;6.220;2023-04-24T02:30:18;10.07;;;4.93;;
50267;SDS011;36153;50.960;6.220;2023-04-24T02:33:18;8.57;;;5.75;;
50267;SDS011;36153;50.960;6.220;2023-04-24T02:36:19;11.55;;;5.25;;
50267;SDS011;36153;50.960;6.220;2023-04-24T02:39:21;10.38;;;5.22;;
50267;SDS011;36153;50.960;6.220;2023-04-24T02:42:21;9.40;;;4.93;;
50267;SDS011;36153;50.960;6.220;2023-04-24T02:45:21;11.65;;;5.97;;
50267;SDS011;36153;50.960;6.220;2023-04-24T02:48:22;9.25;;;5.03;;
50267;SDS011;36153;50.960;6.220;2023-04-24T02:51:22;9.82;;;4.57;;
50267;SDS011;36153;50.960;6.220;2023-04-24T02:54:24;11.70;;;5.05;;
50267;SDS011;36153;50.960;6.220;2023-04-24T02:57:24;12.02;;;5.68;;
50267;SDS011;36153;50.960;6.220;2023-04-24T03:00:27;8.02;;;4.78;;
50267;SDS011;36153;50.960;6.220;2023-04-24T03:03:31;11.25;;;5.57;;
50267;SDS011;36153;50.960;6.220;2023-04-24T03:06:33;10.40;;;5.57;;
50267;SDS011;36153;50.960;6.220;2023-04-24T03:09:37;8.27;;;5.43;;
50267;SDS011;36153;50.960;6.220;2023-04-24T03:12:37;10.70;;;5.72;;
50267;SDS011;36153;50.960;6.220;2023-04-24T03:15:38;8.63;;;5.10;;
50267;SDS011;36153;50.960;6.220;2023-04-24T03:18:38;7.13;;;4.47;;
50267;SDS011;36153;50.960;6.220;2023-04-24T03:21:38;6.53;;;4.68;;
50267;SDS011;36153;50.960;6.220;2023-04-24T03:24:40;10.65;;;5.97;;
50267;SDS011;36153;50.960;6.220;2023-04-24T03:27:40;9.27;;;4.88;;
50267;SDS011;36153;50.960;6.220;2023-04-24T03:30:41;9.95;;;5.78;;
50267;SDS011;36153;50.960;6.220;2023-04-24T03:33:41;8.63;;;5.07;;
50267;SDS011;36153;50.960;6.220;2023-04-24T03:36:45;10.68;;;5.68;;
50267;SDS011;36153;50.960;6.220;2023-04-24T03:39:47;10.52;;;6.00;;
50267;SDS011;36153;50.960;6.220;2023-04-24T03:42:47;12.55;;;5.75;;
50267;SDS011;36153;50.960;6.220;2023-04-24T03:45:48;10.07;;;5.47;;
50267;SDS011;36153;50.960;6.220;2023-04-24T03:48:48;8.63;;;5.15;;
50267;SDS011;36153;50.960;6.220;2023-04-24T03:51:49;8.60;;;4.70;;
50267;SDS011;36153;50.960;6.220;2023-04-24T03:54:49;7.68;;;4.88;;
50267;SDS011;36153;50.960;6.220;2023-04-24T03:57:49;9.93;;;5.00;;
50267;SDS011;36153;50.960;6.220;2023-04-24T04:00:50;8.50;;;4.63;;
50267;SDS011;36153;50.960;6.220;2023-04-24T04:03:51;10.48;;;5.00;;
50267;SDS011;36153;50.960;6.220;2023-04-24T04:06:51;7.15;;;4.43;;
50267;SDS011;36153;50.960;6.220;2023-04-24T04:09:52;6.40;;;3.85;;
50267;SDS011;36153;50.960;6.220;2023-04-24T04:12:52;7.60;;;4.45;;
50267;SDS011;36153;50.960;6.220;2023-04-24T04:15:52;7.85;;;4.75;;
50267;SDS011;36153;50.960;6.220;2023-04-24T04:18:53;9.45;;;4.22;;
50267;SDS011;36153;50.960;6.220;2023-04-24T04:21:53;6.95;;;4.10;;
50267;SDS011;36153;50.960;6.220;2023-04-24T04:24:56;7.03;;;4.32;;
50267;SDS011;36153;50.960;6.220;2023-04-24T04:27:56;6.60;;;3.97;;
50267;SDS011;36153;50.960;6.220;2023-04-24T04:30:58;6.60;;;4.07;;
50267;SDS011;36153;50.960;6.220;2023-04-24T04:33:58;7.32;;;4.03;;
50267;SDS011;36153;50.960;6.220;2023-04-24T04:36:58;7.22;;;4.70;;
50267;SDS011;36153;50.960;6.220;2023-04-24T04:40:02;8.30;;;4.80;;
50267;SDS011;36153;50.960;6.220;2023-04-24T04:43:06;5.97;;;4.30;;
50267;SDS011;36153;50.960;6.220;2023-04-24T04:46:06;7.28;;;3.75;;
50267;SDS011;36153;50.960;6.220;2023-04-24T04:49:08;6.57;;;3.58;;
50267;SDS011;36153;50.960;6.220;2023-04-24T04:52:08;7.82;;;4.32;;
50267;SDS011;36153;50.960;6.220;2023-04-24T04:55:09;11.02;;;4.30;;
50267;SDS011;36153;50.960;6.220;2023-04-24T04:58:12;7.57;;;4.35;;
50267;SDS011;36153;50.960;6.220;2023-04-24T05:01:12;6.93;;;4.47;;
50267;SDS011;36153;50.960;6.220;2023-04-24T05:04:12;7.10;;;4.38;;
50267;SDS011;36153;50.960;6.220;2023-04-24T05:07:13;8.13;;;4.70;;
50267;SDS011;36153;50.960;6.220;2023-04-24T05:10:13;6.22;;;3.75;;
50267;SDS011;36153;50.960;6.220;2023-04-24T05:13:13;7.88;;;3.67;;
50267;SDS011;36153;50.960;6.220;2023-04-24T05:16:14;8.02;;;3.95;;
50267;SDS011;36153;50.960;6.220;2023-04-24T05:19:14;7.00;;;3.90;;
50267;SDS011;36153;50.960;6.220;2023-04-24T05:22:15;7.18;;;4.30;;
50267;SDS011;36153;50.960;6.220;2023-04-24T05:25:17;4.85;;;3.42;;
50267;SDS011;36153;50.960;6.220;2023-04-24T05:28:17;5.18;;;3.08;;
50267;SDS011;36153;50.960;6.220;2023-04-24T05:31:18;6.47;;;3.50;;
50267;SDS011;36153;50.960;6.220;2023-04-24T05:34:18;6.32;;;2.97;;
50267;SDS011;36153;50.960;6.220;2023-04-24T05:37:19;6.22;;;3.10;;
50267;SDS011;36153;50.960;6.220;2023-04-24T05:40:19;6.65;;;2.90;;
50267;SDS011;36153;50.960;6.220;2023-04-24T05:43:20;5.40;;;3.00;;
50267;SDS011;36153;50.960;6.220;2023-04-24T05:46:20;5.28;;;2.78;;
50267;SDS011;36153;50.960;6.220;2023-04-24T05:49:21;5.00;;;2.67;;
50267;SDS011;36153;50.960;6.220;2023-04-24T05:52:21;9.50;;;3.08;;
50267;SDS011;36153;50.960;6.220;2023-04-24T05:55:21;5.18;;;3.08;;
50267;SDS011;36153;50.960;6.220;2023-04-24T05:58:22;7.63;;;2.75;;
50267;SDS011;36153;50.960;6.220;2023-04-24T06:01:22;5.95;;;2.47;;
50267;SDS011;36153;50.960;6.220;2023-04-24T06:04:28;2.92;;;2.22;;
50267;SDS011;36153;50.960;6.220;2023-04-24T06:07:28;4.07;;;2.47;;
50267;SDS011;36153;50.960;6.220;2023-04-24T06:10:28;4.10;;;2.13;;
50267;SDS011;36153;50.960;6.220;2023-04-24T06:13:29;3.05;;;2.10;;
50267;SDS011;36153;50.960;6.220;2023-04-24T06:16:29;2.40;;;1.50;;
50267;SDS011;36153;50.960;6.220;2023-04-24T06:19:30;3.70;;;1.42;;
50267;SDS011;36153;50.960;6.220;2023-04-24T06:22:30;4.50;;;2.13;;
50267;SDS011;36153;50.960;6.220;2023-04-24T06:25:31;2.22;;;1.50;;
50267;SDS011;36153;50.960;6.220;2023-04-24T06:28:31;2.05;;;1.35;;
50267;SDS011;36153;50.960;6.220;2023-04-24T06:31:31;5.45;;;2.42;;
50267;SDS011;36153;50.960;6.220;2023-04-24T06:34:36;3.05;;;1.55;;
50267;SDS011;36153;50.960;6.220;2023-04-24T06:37:37;3.50;;;2.95;;
50267;SDS011;36153;50.960;6.220;2023-04-24T06:40:41;6.38;;;2.10;;
50267;SDS011;36153;50.960;6.220;2023-04-24T06:43:41;3.30;;;2.60;;
50267;SDS011;36153;50.960;6.220;2023-04-24T06:46:42;5.95;;;3.05;;
50267;SDS011;36153;50.960;6.220;2023-04-24T06:49:42;3.50;;;2.45;;
50267;SDS011;36153;50.960;6.220;2023-04-24T06:52:43;3.53;;;1.75;;
50267;SDS011;36153;50.960;6.220;2023-04-24T06:55:44;2.22;;;1.40;;
50267;SDS011;36153;50.960;6.220;2023-04-24T06:58:48;3.25;;;2.08;;
50267;SDS011;36153;50.960;6.220;2023-04-24T07:01:48;2.22;;;1.75;;
50267;SDS011;36153;50.960;6.220;2023-04-24T07:04:49;2.38;;;1.27;;
50267;SDS011;36153;50.960;6.220;2023-04-24T07:07:49;2.80;;;1.70;;
50267;SDS011;36153;50.960;6.220;2023-04-24T07:10:51;2.60;;;1.52;;
50267;SDS011;36153;50.960;6.220;2023-04-24T07:13:52;2.63;;;1.50;;
50267;SDS011;36153;50.960;6.220;2023-04-24T07:16:52;1.23;;;1.10;;
50267;SDS011;36153;50.960;6.220;2023-04-24T07:19:52;2.28;;;1.23;;
50267;SDS011;36153;50.960;6.220;2023-04-24T07:22:53;3.08;;;1.42;;
50267;SDS011;36153;50.960;6.220;2023-04-24T07:25:54;3.38;;;1.60;;
50267;SDS011;36153;50.960;6.220;2023-04-24T07:28:54;4.13;;;2.28;;
50267;SDS011;36153;50.960;6.220;2023-04-24T07:31:55;3.55;;;2.10;;
50267;SDS011;36153;50.960;6.220;2023-04-24T07:34:56;5.13;;;1.83;;
50267;SDS011;36153;50.960;6.220;2023-04-24T07:37:56;2.65;;;1.67;;
50267;SDS011;36153;50.960;6.220;2023-04-24T07:40:57;3.30;;;1.80;;
50267;SDS011;36153;50.960;6.220;2023-04-24T07:43:58;2.45;;;1.58;;
50267;SDS011;36153;50.960;6.220;2023-04-24T07:46:58;3.03;;;1.60;;
50267;SDS011;36153;50.960;6.220;2023-04-24T07:49:58;1.67;;;0.95;;
50267;SDS011;36153;50.960;6.220;2023-04-24T07:53:02;1.75;;;1.23;;
50267;SDS011;36153;50.960;6.220;2023-04-24T07:56:02;2.70;;;1.52;;
50267;SDS011;36153;50.960;6.220;2023-04-24T07:59:03;4.22;;;1.63;;
50267;SDS011;36153;50.960;6.220;2023-04-24T08:02:03;3.65;;;1.70;;
50267;SDS011;36153;50.960;6.220;2023-04-24T08:05:04;3.45;;;2.47;;
50267;SDS011;36153;50.960;6.220;2023-04-24T08:08:05;1.77;;;1.38;;
50267;SDS011;36153;50.960;6.220;2023-04-24T08:11:06;3.13;;;1.48;;
50267;SDS011;36153;50.960;6.220;2023-04-24T08:14:06;4.20;;;2.83;;
50267;SDS011;36153;50.960;6.220;2023-04-24T08:17:07;5.45;;;2.47;;
50267;SDS011;36153;50.960;6.220;2023-04-24T08:20:08;3.40;;;2.08;;
50267;SDS011;36153;50.960;6.220;2023-04-24T08:23:13;3.90;;;2.72;;
50267;SDS011;36153;50.960;6.220;2023-04-24T08:26:13;5.57;;;2.60;;
50267;SDS011;36153;50.960;6.220;2023-04-24T08:29:14;5.93;;;2.58;;
50267;SDS011;36153;50.960;6.220;2023-04-24T08:32:14;6.18;;;2.90;;
50267;SDS011;36153;50.960;6.220;2023-04-24T08:35:14;4.32;;;3.15;;
50267;SDS011;36153;50.960;6.220;2023-04-24T08:38:15;4.05;;;2.58;;
50267;SDS011;36153;50.960;6.220;2023-04-24T08:41:16;4.80;;;2.50;;
50267;SDS011;36153;50.960;6.220;2023-04-24T08:44:18;4.95;;;2.70;;
50267;SDS011;36153;50.960;6.220;2023-04-24T08:47:19;3.72;;;1.98;;
50267;SDS011;36153;50.960;6.220;2023-04-24T08:50:21;5.10;;;2.63;;
50267;SDS011;36153;50.960;6.220;2023-04-24T08:53:22;5.53;;;2.60;;
50267;SDS011;36153;50.960;6.220;2023-04-24T08:56:24;4.70;;;2.47;;
50267;SDS011;36153;50.960;6.220;2023-04-24T08:59:25;6.35;;;2.75;;
50267;SDS011;36153;50.960;6.220;2023-04-24T09:02:25;4.60;;;2.63;;
50267;SDS011;36153;50.960;6.220;2023-04-24T09:05:26;4.60;;;2.25;;
50267;SDS011;36153;50.960;6.220;2023-04-24T09:08:27;6.20;;;2.90;;
50267;SDS011;36153;50.960;6.220;2023-04-24T09:11:32;7.13;;;3.00;;
50267;SDS011;36153;50.960;6.220;2023-04-24T09:14:33;5.78;;;3.05;;
50267;SDS011;36153;50.960;6.220;2023-04-24T09:17:33;4.88;;;2.00;;
50267;SDS011;36153;50.960;6.220;2023-04-24T09:20:34;8.85;;;3.00;;
50267;SDS011;36153;50.960;6.220;2023-04-24T09:23:37;4.35;;;2.25;;
50267;SDS011;36153;50.960;6.220;2023-04-24T09:26:38;4.80;;;2.17;;
50267;SDS011;36153;50.960;6.220;2023-04-24T09:29:39;5.13;;;2.50;;
50267;SDS011;36153;50.960;6.220;2023-04-24T09:32:39;7.30;;;2.33;;
50267;SDS011;36153;50.960;6.220;2023-04-24T09:35:49;5.70;;;2.40;;
50267;SDS011;36153;50.960;6.220;2023-04-24T09:38:55;4.40;;;2.10;;
50267;SDS011;36153;50.960;6.220;2023-04-24T09:41:58;6.45;;;2.30;;
50267;SDS011;36153;50.960;6.220;2023-04-24T09:45:01;3.80;;;2.53;;
50267;SDS011;36153;50.960;6.220;2023-04-24T09:48:02;6.30;;;3.00;;
50267;SDS011;36153;50.960;6.220;2023-04-24T09:51:03;5.10;;;3.38;;
50267;SDS011;36153;50.960;6.220;2023-04-24T09:54:17;5.20;;;2.40;;
50267;SDS011;36153;50.960;6.220;2023-04-24T09:57:20;7.47;;;3.00;;
50267;SDS011;36153;50.960;6.220;2023-04-24T10:00:25;6.97;;;3.08;;
50267;SDS011;36153;50.960;6.220;2023-04-24T10:03:31;3.92;;;2.25;;
50267;SDS011;36153;50.960;6.220;2023-04-24T10:06:35;4.57;;;2.75;;
50267;SDS011;36153;50.960;6.220;2023-04-24T10:09:35;5.70;;;1.90;;
50267;SDS011;36153;50.960;6.220;2023-04-24T10:12:36;5.20;;;3.08;;
50267;SDS011;36153;50.960;6.220;2023-04-24T10:15:37;6.00;;;3.08;;
50267;SDS011;36153;50.960;6.220;2023-04-24T10:18:38;9.15;;;3.33;;
50267;SDS011;36153;50.960;6.220;2023-04-24T10:21:40;6.78;;;3.47;;
50267;SDS011;36153;50.960;6.220;2023-04-24T10:24:46;9.50;;;4.57;;
50267;SDS011;36153;50.960;6.220;2023-04-24T10:27:49;7.55;;;4.07;;
50267;SDS011;36153;50.960;6.220;2023-04-24T10:30:51;5.63;;;2.75;;
50267;SDS011;36153;50.960;6.220;2023-04-24T10:33:54;6.78;;;3.13;;
50267;SDS011;36153;50.960;6.220;2023-04-24T10:36:55;4.65;;;2.55;;
50267;SDS011;36153;50.960;6.220;2023-04-24T10:39:57;5.72;;;3.25;;
50267;SDS011;36153;50.960;6.220;2023-04-24T10:42:57;5.28;;;2.58;;
50267;SDS011;36153;50.960;6.220;2023-04-24T10:46:04;4.45;;;2.40;;
50267;SDS011;36153;50.960;6.220;2023-04-24T10:49:06;4.25;;;3.03;;
50267;SDS011;36153;50.960;6.220;2023-04-24T10:52:10;5.47;;;2.63;;
50267;SDS011;36153;50.960;6.220;2023-04-24T10:55:15;7.65;;;3.00;;
50267;SDS011;36153;50.960;6.220;2023-04-24T10:58:15;5.35;;;2.78;;
50267;SDS011;36153;50.960;6.220;2023-04-24T11:04:31;6.90;;;3.17;;
50267;SDS011;36153;50.960;6.220;2023-04-24T11:11:17;6.85;;;2.60;;
50267;SDS011;36153;50.960;6.220;2023-04-24T11:14:18;11.25;;;4.15;;
50267;SDS011;36153;50.960;6.220;2023-04-24T11:20:31;8.88;;;2.97;;
50267;SDS011;36153;50.960;6.220;2023-04-24T11:23:35;10.95;;;4.55;;
50267;SDS011;36153;50.960;6.220;2023-04-24T11:26:37;6.05;;;3.40;;
50267;SDS011;36153;50.960;6.220;2023-04-24T11:33:01;9.25;;;3.42;;
50267;SDS011;36153;50.960;6.220;2023-04-24T11:36:05;8.10;;;3.33;;
50267;SDS011;36153;50.960;6.220;2023-04-24T11:39:05;9.68;;;2.90;;
50267;SDS011;36153;50.960;6.220;2023-04-24T11:42:06;5.07;;;3.10;;
50267;SDS011;36153;50.960;6.220;2023-04-24T11:45:09;8.98;;;4.10;;
50267;SDS011;36153;50.960;6.220;2023-04-24T11:48:18;5.68;;;2.75;;
50267;SDS011;36153;50.960;6.220;2023-04-24T11:51:19;5.13;;;2.22;;
50267;SDS011;36153;50.960;6.220;2023-04-24T11:54:20;6.35;;;3.45;;
50267;SDS011;36153;50.960;6.220;2023-04-24T11:57:20;5.20;;;2.45;;
50267;SDS011;36153;50.960;6.220;2023-04-24T12:00:26;5.47;;;2.58;;
50267;SDS011;36153;50.960;6.220;2023-04-24T12:03:31;5.55;;;2.92;;
50267;SDS011;36153;50.960;6.220;2023-04-24T12:06:31;5.68;;;2.80;;
50267;SDS011;36153;50.960;6.220;2023-04-24T12:09:45;6.43;;;2.83;;
50267;SDS011;36153;50.960;6.220;2023-04-24T12:12:47;6.07;;;2.28;;
50267;SDS011;36153;50.960;6.220;2023-04-24T12:15:50;4.45;;;2.65;;
50267;SDS011;36153;50.960;6.220;2023-04-24T12:18:50;4.78;;;3.05;;
50267;SDS011;36153;50.960;6.220;2023-04-24T12:22:01;8.55;;;2.72;;
50267;SDS011;36153;50.960;6.220;2023-04-24T12:25:03;5.35;;;3.03;;
50267;SDS011;36153;50.960;6.220;2023-04-24T12:31:06;9.25;;;4.05;;
50267;SDS011;36153;50.960;6.220;2023-04-24T12:34:23;4.57;;;2.78;;
50267;SDS011;36153;50.960;6.220;2023-04-24T12:37:26;10.98;;;3.65;;
50267;SDS011;36153;50.960;6.220;2023-04-24T12:40:26;5.60;;;3.67;;
50267;SDS011;36153;50.960;6.220;2023-04-24T12:43:28;6.55;;;4.03;;
50267;SDS011;36153;50.960;6.220;2023-04-24T12:46:29;9.85;;;4.25;;
50267;SDS011;36153;50.960;6.220;2023-04-24T12:49:30;10.43;;;4.50;;
50267;SDS011;36153;50.960;6.220;2023-04-24T12:52:30;7.50;;;3.80;;
50267;SDS011;36153;50.960;6.220;2023-04-24T12:55:31;8.63;;;4.30;;
50267;SDS011;36153;50.960;6.220;2023-04-24T12:58:31;5.90;;;4.00;;
50267;SDS011;36153;50.960;6.220;2023-04-24T13:01:31;6.72;;;3.92;;
50267;SDS011;36153;50.960;6.220;2023-04-24T13:04:32;10.02;;;4.93;;
50267;SDS011;36153;50.960;6.220;2023-04-24T13:07:32;7.93;;;4.53;;
50267;SDS011;36153;50.960;6.220;2023-04-24T13:10:33;4.97;;;3.22;;
50267;SDS011;36153;50.960;6.220;2023-04-24T13:13:34;7.72;;;3.85;;
50267;SDS011;36153;50.960;6.220;2023-04-24T13:16:34;4.78;;;2.63;;
50267;SDS011;36153;50.960;6.220;2023-04-24T13:19:35;4.80;;;2.28;;
50267;SDS011;36153;50.960;6.220;2023-04-24T13:22:40;5.72;;;3.13;;
50267;SDS011;36153;50.960;6.220;2023-04-24T13:25:41;3.90;;;2.17;;
50267;SDS011;36153;50.960;6.220;2023-04-24T13:28:41;3.92;;;2.53;;
50267;SDS011;36153;50.960;6.220;2023-04-24T13:31:42;4.85;;;2.28;;
50267;SDS011;36153;50.960;6.220;2023-04-24T13:34:42;6.70;;;2.55;;
50267;SDS011;36153;50.960;6.220;2023-04-24T13:37:43;8.00;;;2.72;;
50267;SDS011;36153;50.960;6.220;2023-04-24T13:40:43;3.55;;;2.30;;
50267;SDS011;36153;50.960;6.220;2023-04-24T13:43:44;4.20;;;2.72;;
50267;SDS011;36153;50.960;6.220;2023-04-24T13:46:45;5.30;;;2.72;;
50267;SDS011;36153;50.960;6.220;2023-04-24T13:49:46;8.82;;;3.88;;
50267;SDS011;36153;50.960;6.220;2023-04-24T13:52:47;4.65;;;3.08;;
50267;SDS011;36153;50.960;6.220;2023-04-24T13:55:47;7.13;;;3.75;;
50267;SDS011;36153;50.960;6.220;2023-04-24T13:58:48;7.00;;;3.65;;
50267;SDS011;36153;50.960;6.220;2023-04-24T14:01:48;4.55;;;3.03;;
50267;SDS011;36153;50.960;6.220;2023-04-24T14:04:49;7.10;;;3.53;;
50267;SDS011;36153;50.960;6.220;2023-04-24T14:07:49;6.93;;;3.55;;
50267;SDS011;36153;50.960;6.220;2023-04-24T14:10:50;4.05;;;2.70;;
50267;SDS011;36153;50.960;6.220;2023-04-24T14:13:51;6.18;;;3.38;;
50267;SDS011;36153;50.960;6.220;2023-04-24T14:16:51;8.02;;;3.25;;
50267;SDS011;36153;50.960;6.220;2023-04-24T14:19:52;3.08;;;2.45;;
50267;SDS011;36153;50.960;6.220;2023-04-24T14:22:55;6.18;;;2.97;;
50267;SDS011;36153;50.960;6.220;2023-04-24T14:25:58;9.10;;;3.28;;
50267;SDS011;36153;50.960;6.220;2023-04-24T14:28:59;5.65;;;2.95;;
50267;SDS011;36153;50.960;6.220;2023-04-24T14:31:59;3.88;;;2.80;;
50267;SDS011;36153;50.960;6.220;2023-04-24T14:34:59;6.28;;;3.83;;
50267;SDS011;36153;50.960;6.220;2023-04-24T14:38:00;9.13;;;4.50;;
50267;SDS011;36153;50.960;6.220;2023-04-24T14:41:00;4.70;;;3.75;;
50267;SDS011;36153;50.960;6.220;2023-04-24T14:44:02;5.30;;;2.95;;
50267;SDS011;36153;50.960;6.220;2023-04-24T14:47:02;10.68;;;4.47;;
50267;SDS011;36153;50.960;6.220;2023-04-24T14:50:03;5.43;;;3.90;;
50267;SDS011;36153;50.960;6.220;2023-04-24T14:53:04;6.60;;;4.10;;
50267;SDS011;36153;50.960;6.220;2023-04-24T14:56:05;6.57;;;3.70;;
50267;SDS011;36153;50.960;6.220;2023-04-24T14:59:05;5.30;;;3.25;;
50267;SDS011;36153;50.960;6.220;2023-04-24T15:02:06;3.50;;;2.67;;
50267;SDS011;36153;50.960;6.220;2023-04-24T15:05:07;3.15;;;2.33;;
50267;SDS011;36153;50.960;6.220;2023-04-24T15:08:08;4.55;;;2.78;;
50267;SDS011;36153;50.960;6.220;2023-04-24T15:11:11;5.35;;;2.70;;
50267;SDS011;36153;50.960;6.220;2023-04-24T15:14:12;4.78;;;2.88;;
50267;SDS011;36153;50.960;6.220;2023-04-24T15:17:12;6.40;;;2.58;;
50267;SDS011;36153;50.960;6.220;2023-04-24T15:20:12;8.52;;;2.28;;
50267;SDS011;36153;50.960;6.220;2023-04-24T15:23:13;5.05;;;2.67;;
50267;SDS011;36153;50.960;6.220;2023-04-24T15:26:13;5.18;;;2.80;;
50267;SDS011;36153;50.960;6.220;2023-04-24T15:29:14;5.63;;;3.00;;
50267;SDS011;36153;50.960;6.220;2023-04-24T15:32:14;6.95;;;3.45;;
50267;SDS011;36153;50.960;6.220;2023-04-24T15:35:14;5.30;;;3.38;;
50267;SDS011;36153;50.960;6.220;2023-04-24T15:38:16;5.18;;;3.00;;
50267;SDS011;36153;50.960;6.220;2023-04-24T15:41:16;4.03;;;2.63;;
50267;SDS011;36153;50.960;6.220;2023-04-24T15:44:16;4.40;;;2.83;;
50267;SDS011;36153;50.960;6.220;2023-04-24T15:47:17;5.15;;;2.70;;
50267;SDS011;36153;50.960;6.220;2023-04-24T15:50:17;4.00;;;2.58;;
50267;SDS011;36153;50.960;6.220;2023-04-24T15:53:18;4.18;;;3.22;;
50267;SDS011;36153;50.960;6.220;2023-04-24T15:56:21;5.95;;;2.95;;
50267;SDS011;36153;50.960;6.220;2023-04-24T15:59:21;5.00;;;3.10;;
50267;SDS011;36153;50.960;6.220;2023-04-24T16:02:22;6.45;;;3.05;;
50267;SDS011;36153;50.960;6.220;2023-04-24T16:05:22;10.00;;;3.25;;
50267;SDS011;36153;50.960;6.220;2023-04-24T16:08:23;2.72;;;2.50;;
50267;SDS011;36153;50.960;6.220;2023-04-24T16:11:23;4.78;;;3.22;;
50267;SDS011;36153;50.960;6.220;2023-04-24T16:14:24;4.57;;;2.08;;
50267;SDS011;36153;50.960;6.220;2023-04-24T16:17:25;4.25;;;2.42;;
50267;SDS011;36153;50.960;6.220;2023-04-24T16:20:25;3.65;;;2.53;;
50267;SDS011;36153;50.960;6.220;2023-04-24T16:23:26;3.33;;;2.40;;
50267;SDS011;36153;50.960;6.220;2023-04-24T16:26:26;4.20;;;2.28;;
50267;SDS011;36153;50.960;6.220;2023-04-24T16:29:27;5.10;;;2.53;;
50267;SDS011;36153;50.960;6.220;2023-04-24T16:32:27;4.03;;;2.33;;
50267;SDS011;36153;50.960;6.220;2023-04-24T16:35:28;4.78;;;2.58;;
50267;SDS011;36153;50.960;6.220;2023-04-24T16:38:28;4.97;;;2.40;;
50267;SDS011;36153;50.960;6.220;2023-04-24T16:41:29;3.33;;;2.03;;
50267;SDS011;36153;50.960;6.220;2023-04-24T16:44:32;4.75;;;2.67;;
50267;SDS011;36153;50.960;6.220;2023-04-24T16:47:32;5.68;;;2.70;;
50267;SDS011;36153;50.960;6.220;2023-04-24T16:50:32;6.05;;;2.03;;
50267;SDS011;36153;50.960;6.220;2023-04-24T16:53:33;3.60;;;2.22;;
50267;SDS011;36153;50.960;6.220;2023-04-24T16:56:33;3.03;;;1.83;;
50267;SDS011;36153;50.960;6.220;2023-04-24T16:59:34;3.55;;;2.00;;
50267;SDS011;36153;50.960;6.220;2023-04-24T17:02:34;4.32;;;2.17;;
50267;SDS011;36153;50.960;6.220;2023-04-24T17:05:34;3.80;;;2.05;;
50267;SDS011;36153;50.960;6.220;2023-04-24T17:08:35;2.83;;;1.60;;
50267;SDS011;36153;50.960;6.220;2023-04-24T17:11:35;3.60;;;1.92;;
50267;SDS011;36153;50.960;6.220;2023-04-24T17:14:36;3.05;;;1.58;;
50267;SDS011;36153;50.960;6.220;2023-04-24T17:17:36;4.25;;;1.77;;
50267;SDS011;36153;50.960;6.220;2023-04-24T17:20:37;3.28;;;1.70;;
50267;SDS011;36153;50.960;6.220;2023-04-24T17:23:37;2.67;;;1.52;;
50267;SDS011;36153;50.960;6.220;2023-04-24T17:26:39;3.13;;;2.05;;
50267;SDS011;36153;50.960;6.220;2023-04-24T17:29:39;3.30;;;1.70;;
50267;SDS011;36153;50.960;6.220;2023-04-24T17:32:40;4.68;;;1.88;;
50267;SDS011;36153;50.960;6.220;2023-04-24T17:35:40;4.60;;;1.90;;
50267;SDS011;36153;50.960;6.220;2023-04-24T17:38:41;4.53;;;2.53;;
50267;SDS011;36153;50.960;6.220;2023-04-24T17:41:41;3.95;;;2.28;;
50267;SDS011;36153;50.960;6.220;2023-04-24T17:44:45;4.68;;;1.60;;
50267;SDS011;36153;50.960;6.220;2023-04-24T17:48:18;2.90;;;1.90;;
50267;SDS011;36153;50.960;6.220;2023-04-24T17:51:19;4.63;;;2.05;;
50267;SDS011;36153;50.960;6.220;2023-04-24T17:54:19;3.17;;;2.10;;
50267;SDS011;36153;50.960;6.220;2023-04-24T17:57:19;3.17;;;2.00;;
50267;SDS011;36153;50.960;6.220;2023-04-24T18:00:20;6.22;;;2.17;;
50267;SDS011;36153;50.960;6.220;2023-04-24T18:03:20;3.58;;;1.73;;
50267;SDS011;36153;50.960;6.220;2023-04-24T18:06:21;3.75;;;2.17;;
50267;SDS011;36153;50.960;6.220;2023-04-24T18:09:21;3.90;;;2.33;;
50267;SDS011;36153;50.960;6.220;2023-04-24T18:12:22;3.55;;;1.88;;
50267;SDS011;36153;50.960;6.220;2023-04-24T18:15:22;4.10;;;2.10;;
50267;SDS011;36153;50.960;6.220;2023-04-24T18:18:23;4.28;;;1.70;;
50267;SDS011;36153;50.960;6.220;2023-04-24T18:21:33;3.72;;;1.50;;
50267;SDS011;36153;50.960;6.220;2023-04-24T18:24:35;3.08;;;2.05;;
50267;SDS011;36153;50.960;6.220;2023-04-24T18:27:36;4.68;;;2.70;;